sensor_id;sensor_type;location;lat;lon;timestamp;pressure;altitude;pressure_sealevel;temperature;humidity
17593;BME280;8915;51.760;14.300;2023-09-08T00:01:05;101655.69;;;16.47;70.41
17593;BME280;8915;51.760;14.300;2023-09-08T00:03:32;101659.81;;;16.45;70.52
17593;BME280;8915;51.760;14.300;2023-09-08T00:05:58;101649.81;;;16.42;70.63
17593;BME280;8915;51.760;14.300;2023-09-08T00:08:24;101654.72;;;16.40;71.16
17593;BME280;8915;51.760;14.300;2023-09-08T00:10:52;101650.00;;;16.37;70.26
17593;BME280;8915;51.760;14.300;2023-09-08T00:13:18;101662.56;;;16.36;71.62
17593;BME280;8915;51.760;14.300;2023-09-08T00:15:45;101649.59;;;16.35;71.27
17593;BME280;8915;51.760;14.300;2023-09-08T00:18:11;101648.78;;;16.34;71.54
17593;BME280;8915;51.760;14.300;2023-09-08T00:20:37;101657.91;;;16.33;70.73
17593;BME280;8915;51.760;14.300;2023-09-08T00:23:04;101648.38;;;16.32;71.17
17593;BME280;8915;51.760;14.300;2023-09-08T00:25:30;101653.69;;;16.32;71.54
17593;BME280;8915;51.760;14.300;2023-09-08T00:27:58;101652.13;;;16.31;71.04
17593;BME280;8915;51.760;14.300;2023-09-08T00:30:24;101652.91;;;16.32;71.23
17593;BME280;8915;51.760;14.300;2023-09-08T00:32:50;101648.38;;;16.32;71.49
17593;BME280;8915;51.760;14.300;2023-09-08T00:35:17;101652.13;;;16.31;70.76
17593;BME280;8915;51.760;14.300;2023-09-08T00:37:43;101647.59;;;16.32;71.02
17593;BME280;8915;51.760;14.300;2023-09-08T00:40:10;101641.47;;;16.31;71.71
17593;BME280;8915;51.760;14.300;2023-09-08T00:42:36;101641.81;;;16.30;70.64
17593;BME280;8915;51.760;14.300;2023-09-08T00:45:05;101637.59;;;16.29;72.09
17593;BME280;8915;51.760;14.300;2023-09-08T00:47:32;101640.25;;;16.29;72.71
17593;BME280;8915;51.760;14.300;2023-09-08T00:49:59;101641.03;;;16.29;72.20
17593;BME280;8915;51.760;14.300;2023-09-08T00:52:26;101650.91;;;16.29;71.95
17593;BME280;8915;51.760;14.300;2023-09-08T00:54:57;101640.25;;;16.29;71.86
17593;BME280;8915;51.760;14.300;2023-09-08T00:57:24;101649.38;;;16.28;71.57
17593;BME280;8915;51.760;14.300;2023-09-08T00:59:51;101649.69;;;16.26;71.39
17593;BME280;8915;51.760;14.300;2023-09-08T01:02:18;101643.94;;;16.24;72.36
17593;BME280;8915;51.760;14.300;2023-09-08T01:04:45;101643.50;;;16.22;71.87
17593;BME280;8915;51.760;14.300;2023-09-08T01:07:11;101641.16;;;16.21;71.61
17593;BME280;8915;51.760;14.300;2023-09-08T01:09:39;101647.63;;;16.20;71.93
17593;BME280;8915;51.760;14.300;2023-09-08T01:12:07;101646.06;;;16.19;73.16
17593;BME280;8915;51.760;14.300;2023-09-08T01:14:33;101643.75;;;16.17;72.47
17593;BME280;8915;51.760;14.300;2023-09-08T01:17:00;101640.28;;;16.17;72.07
17593;BME280;8915;51.760;14.300;2023-09-08T01:19:28;101638.75;;;16.16;72.27
17593;BME280;8915;51.760;14.300;2023-09-08T01:22:18;101629.53;;;16.13;72.43
17593;BME280;8915;51.760;14.300;2023-09-08T01:25:17;101628.31;;;16.11;71.60
17593;BME280;8915;51.760;14.300;2023-09-08T01:27:47;101634.75;;;16.10;72.51
17593;BME280;8915;51.760;14.300;2023-09-08T01:30:14;101626.31;;;16.08;72.42
17593;BME280;8915;51.760;14.300;2023-09-08T01:32:42;101625.88;;;16.06;73.21
17593;BME280;8915;51.760;14.300;2023-09-08T01:35:10;101625.00;;;16.02;71.08
17593;BME280;8915;51.760;14.300;2023-09-08T01:37:39;101627.66;;;16.02;72.90
17593;BME280;8915;51.760;14.300;2023-09-08T01:40:06;101624.91;;;15.98;71.50
17593;BME280;8915;51.760;14.300;2023-09-08T01:42:35;101627.88;;;15.97;74.64
17593;BME280;8915;51.760;14.300;2023-09-08T01:45:02;101626.66;;;15.94;73.09
17593;BME280;8915;51.760;14.300;2023-09-08T01:47:29;101629.25;;;15.91;72.15
17593;BME280;8915;51.760;14.300;2023-09-08T01:49:56;101619.69;;;15.90;73.49
17593;BME280;8915;51.760;14.300;2023-09-08T01:52:22;101624.13;;;15.86;73.62
17593;BME280;8915;51.760;14.300;2023-09-08T01:54:49;101616.84;;;15.83;73.34
17593;BME280;8915;51.760;14.300;2023-09-08T01:57:15;101616.38;;;15.81;74.51
17593;BME280;8915;51.760;14.300;2023-09-08T01:59:43;101619.72;;;15.78;74.27
17593;BME280;8915;51.760;14.300;2023-09-08T02:02:10;101608.19;;;15.74;72.93
17593;BME280;8915;51.760;14.300;2023-09-08T02:04:36;101617.28;;;15.73;73.20
17593;BME280;8915;51.760;14.300;2023-09-08T02:07:03;101610.75;;;15.70;74.16
17593;BME280;8915;51.760;14.300;2023-09-08T02:09:31;101612.50;;;15.66;73.78
17593;BME280;8915;51.760;14.300;2023-09-08T02:11:57;101617.41;;;15.64;74.03
17593;BME280;8915;51.760;14.300;2023-09-08T02:14:24;101603.97;;;15.61;73.89
17593;BME280;8915;51.760;14.300;2023-09-08T02:16:51;101608.84;;;15.59;74.94
17593;BME280;8915;51.760;14.300;2023-09-08T02:19:17;101614.84;;;15.56;73.65
17593;BME280;8915;51.760;14.300;2023-09-08T02:21:44;101610.63;;;15.55;73.89
17593;BME280;8915;51.760;14.300;2023-09-08T02:24:10;101610.94;;;15.53;75.61
17593;BME280;8915;51.760;14.300;2023-09-08T02:26:37;101614.28;;;15.50;75.49
17593;BME280;8915;51.760;14.300;2023-09-08T02:29:05;101606.97;;;15.47;76.64
17593;BME280;8915;51.760;14.300;2023-09-08T02:31:32;101604.97;;;15.44;76.63
17593;BME280;8915;51.760;14.300;2023-09-08T02:34:01;101612.50;;;15.42;77.47
17593;BME280;8915;51.760;14.300;2023-09-08T02:36:28;101609.72;;;15.39;77.87
17593;BME280;8915;51.760;14.300;2023-09-08T02:38:56;101609.63;;;15.35;78.06
17593;BME280;8915;51.760;14.300;2023-09-08T02:41:23;101613.25;;;15.31;78.12
17593;BME280;8915;51.760;14.300;2023-09-08T02:43:50;101613.91;;;15.28;77.97
17593;BME280;8915;51.760;14.300;2023-09-08T02:46:17;101606.94;;;15.23;78.55
17593;BME280;8915;51.760;14.300;2023-09-08T02:48:43;101610.25;;;15.20;79.30
17593;BME280;8915;51.760;14.300;2023-09-08T02:51:11;101604.34;;;15.15;79.36
17593;BME280;8915;51.760;14.300;2023-09-08T02:53:37;101609.88;;;15.10;78.79
17593;BME280;8915;51.760;14.300;2023-09-08T02:56:04;101604.13;;;15.08;79.81
17593;BME280;8915;51.760;14.300;2023-09-08T02:58:31;101599.81;;;15.03;79.75
17593;BME280;8915;51.760;14.300;2023-09-08T03:01:09;101600.78;;;14.99;79.95
17593;BME280;8915;51.760;14.300;2023-09-08T03:03:36;101593.00;;;14.94;79.55
17593;BME280;8915;51.760;14.300;2023-09-08T03:06:03;101587.91;;;14.89;79.85
17593;BME280;8915;51.760;14.300;2023-09-08T03:08:31;101604.53;;;14.86;79.77
17593;BME280;8915;51.760;14.300;2023-09-08T03:10:58;101595.66;;;14.82;80.11
17593;BME280;8915;51.760;14.300;2023-09-08T03:13:25;101595.06;;;14.76;79.83
17593;BME280;8915;51.760;14.300;2023-09-08T03:15:51;101589.63;;;14.73;79.88
17593;BME280;8915;51.760;14.300;2023-09-08T03:18:18;101586.53;;;14.71;80.22
17593;BME280;8915;51.760;14.300;2023-09-08T03:20:48;101592.84;;;14.66;79.86
17593;BME280;8915;51.760;14.300;2023-09-08T03:23:15;101590.41;;;14.61;79.28
17593;BME280;8915;51.760;14.300;2023-09-08T03:25:43;101591.47;;;14.60;80.27
17593;BME280;8915;51.760;14.300;2023-09-08T03:28:09;101589.81;;;14.56;80.36
17593;BME280;8915;51.760;14.300;2023-09-08T03:30:36;101592.78;;;14.54;79.96
17593;BME280;8915;51.760;14.300;2023-09-08T03:33:02;101591.69;;;14.55;81.01
17593;BME280;8915;51.760;14.300;2023-09-08T03:35:28;101591.25;;;14.53;81.59
17593;BME280;8915;51.760;14.300;2023-09-08T03:37:55;101589.69;;;14.52;82.12
17593;BME280;8915;51.760;14.300;2023-09-08T03:40:21;101597.19;;;14.50;82.01
17593;BME280;8915;51.760;14.300;2023-09-08T03:42:49;101593.31;;;14.48;81.65
17593;BME280;8915;51.760;14.300;2023-09-08T03:47:42;101591.31;;;14.45;81.42
17593;BME280;8915;51.760;14.300;2023-09-08T03:50:09;101590.88;;;14.43;81.86
17593;BME280;8915;51.760;14.300;2023-09-08T03:52:36;101588.56;;;14.41;82.30
17593;BME280;8915;51.760;14.300;2023-09-08T03:55:02;101589.97;;;14.39;81.62
17593;BME280;8915;51.760;14.300;2023-09-08T03:57:30;101594.06;;;14.36;82.28
17593;BME280;8915;51.760;14.300;2023-09-08T03:59:57;101593.59;;;14.34;82.73
17593;BME280;8915;51.760;14.300;2023-09-08T04:02:24;101591.28;;;14.33;82.34
17593;BME280;8915;51.760;14.300;2023-09-08T04:04:50;101593.78;;;14.29;81.97
17593;BME280;8915;51.760;14.300;2023-09-08T04:07:17;101597.88;;;14.27;83.18
17593;BME280;8915;51.760;14.300;2023-09-08T04:09:44;101587.91;;;14.24;82.88
17593;BME280;8915;51.760;14.300;2023-09-08T04:12:10;101593.88;;;14.21;83.28
17593;BME280;8915;51.760;14.300;2023-09-08T04:14:37;101601.34;;;14.19;83.54
17593;BME280;8915;51.760;14.300;2023-09-08T04:17:04;101595.94;;;14.15;84.17
17593;BME280;8915;51.760;14.300;2023-09-08T04:19:31;101601.88;;;14.12;84.05
17593;BME280;8915;51.760;14.300;2023-09-08T04:21:57;101594.88;;;14.08;84.36
17593;BME280;8915;51.760;14.300;2023-09-08T04:24:24;101600.06;;;14.04;84.19
17593;BME280;8915;51.760;14.300;2023-09-08T04:26:50;101592.75;;;14.01;84.29
17593;BME280;8915;51.760;14.300;2023-09-08T04:29:16;101601.03;;;14.00;84.72
17593;BME280;8915;51.760;14.300;2023-09-08T04:31:43;101605.41;;;13.96;84.20
17593;BME280;8915;51.760;14.300;2023-09-08T04:34:11;101603.41;;;13.93;84.02
17593;BME280;8915;51.760;14.300;2023-09-08T04:36:37;101597.63;;;13.91;84.62
17593;BME280;8915;51.760;14.300;2023-09-08T04:39:04;101607.81;;;13.89;84.98
17593;BME280;8915;51.760;14.300;2023-09-08T04:41:30;101610.03;;;13.87;85.22
17593;BME280;8915;51.760;14.300;2023-09-08T04:43:56;101608.78;;;13.84;84.84
17593;BME280;8915;51.760;14.300;2023-09-08T04:46:23;101603.47;;;13.84;85.19
17593;BME280;8915;51.760;14.300;2023-09-08T04:48:49;101600.34;;;13.82;84.73
17593;BME280;8915;51.760;14.300;2023-09-08T04:51:18;101598.34;;;13.79;84.35
17593;BME280;8915;51.760;14.300;2023-09-08T04:53:45;101598.03;;;13.81;85.16
17593;BME280;8915;51.760;14.300;2023-09-08T04:56:11;101604.13;;;13.81;85.70
17593;BME280;8915;51.760;14.300;2023-09-08T04:58:38;101598.81;;;13.81;86.11
17593;BME280;8915;51.760;14.300;2023-09-08T05:01:04;101601.78;;;13.80;85.89
17593;BME280;8915;51.760;14.300;2023-09-08T05:03:31;101600.69;;;13.81;85.81
17593;BME280;8915;51.760;14.300;2023-09-08T05:05:58;101597.25;;;13.80;85.07
17593;BME280;8915;51.760;14.300;2023-09-08T05:08:27;101597.69;;;13.82;85.35
17593;BME280;8915;51.760;14.300;2023-09-08T05:10:54;101607.25;;;13.83;85.33
17593;BME280;8915;51.760;14.300;2023-09-08T05:13:20;101602.06;;;13.87;85.70
17593;BME280;8915;51.760;14.300;2023-09-08T05:15:51;101606.25;;;13.88;85.68
17593;BME280;8915;51.760;14.300;2023-09-08T05:18:26;101606.41;;;13.91;86.32
17593;BME280;8915;51.760;14.300;2023-09-08T05:20:53;101608.84;;;13.96;86.12
17593;BME280;8915;51.760;14.300;2023-09-08T05:23:20;101615.41;;;13.99;86.46
17593;BME280;8915;51.760;14.300;2023-09-08T05:25:48;101615.53;;;14.02;86.46
17593;BME280;8915;51.760;14.300;2023-09-08T05:28:15;101626.63;;;14.04;85.54
17593;BME280;8915;51.760;14.300;2023-09-08T05:30:41;101617.25;;;14.07;85.59
17593;BME280;8915;51.760;14.300;2023-09-08T05:33:08;101617.81;;;14.12;84.60
17593;BME280;8915;51.760;14.300;2023-09-08T05:35:34;101615.28;;;14.16;83.42
17593;BME280;8915;51.760;14.300;2023-09-08T05:38:01;101621.66;;;14.23;83.57
17593;BME280;8915;51.760;14.300;2023-09-08T05:40:28;101621.16;;;14.30;83.13
17593;BME280;8915;51.760;14.300;2023-09-08T05:42:55;101627.19;;;14.39;83.43
17593;BME280;8915;51.760;14.300;2023-09-08T05:45:22;101626.97;;;14.44;81.63
17593;BME280;8915;51.760;14.300;2023-09-08T05:47:51;101625.00;;;14.53;81.06
17593;BME280;8915;51.760;14.300;2023-09-08T05:50:18;101623.84;;;14.62;81.95
17593;BME280;8915;51.760;14.300;2023-09-08T05:52:45;101626.09;;;14.72;81.79
17593;BME280;8915;51.760;14.300;2023-09-08T05:55:12;101627.25;;;14.83;80.86
17593;BME280;8915;51.760;14.300;2023-09-08T05:57:39;101625.72;;;14.94;82.04
17593;BME280;8915;51.760;14.300;2023-09-08T06:00:08;101627.53;;;15.02;80.80
17593;BME280;8915;51.760;14.300;2023-09-08T06:02:44;101622.88;;;15.11;80.30
17593;BME280;8915;51.760;14.300;2023-09-08T06:05:13;101629.66;;;15.21;79.64
17593;BME280;8915;51.760;14.300;2023-09-08T06:07:40;101622.00;;;15.31;78.59
17593;BME280;8915;51.760;14.300;2023-09-08T06:10:08;101623.94;;;15.43;80.38
17593;BME280;8915;51.760;14.300;2023-09-08T06:12:36;101622.06;;;15.55;80.07
17593;BME280;8915;51.760;14.300;2023-09-08T06:15:03;101623.38;;;15.61;79.20
17593;BME280;8915;51.760;14.300;2023-09-08T06:17:32;101626.81;;;15.74;78.62
17593;BME280;8915;51.760;14.300;2023-09-08T06:19:59;101624.81;;;15.83;78.37
17593;BME280;8915;51.760;14.300;2023-09-08T06:22:25;101629.69;;;15.93;77.31
17593;BME280;8915;51.760;14.300;2023-09-08T06:24:52;101628.44;;;16.02;78.41
17593;BME280;8915;51.760;14.300;2023-09-08T06:27:18;101625.66;;;16.11;78.56
17593;BME280;8915;51.760;14.300;2023-09-08T06:29:45;101627.84;;;16.21;77.95
17593;BME280;8915;51.760;14.300;2023-09-08T06:32:14;101627.63;;;16.26;77.22
17593;BME280;8915;51.760;14.300;2023-09-08T06:34:44;101625.22;;;16.36;77.04
17593;BME280;8915;51.760;14.300;2023-09-08T06:37:11;101624.78;;;16.46;76.61
17593;BME280;8915;51.760;14.300;2023-09-08T06:39:38;101624.66;;;16.55;76.63
17593;BME280;8915;51.760;14.300;2023-09-08T06:42:05;101621.47;;;16.65;76.78
17593;BME280;8915;51.760;14.300;2023-09-08T06:44:33;101630.56;;;16.76;76.16
17593;BME280;8915;51.760;14.300;2023-09-08T06:46:59;101626.28;;;16.87;75.43
17593;BME280;8915;51.760;14.300;2023-09-08T06:49:26;101628.47;;;16.97;75.56
17593;BME280;8915;51.760;14.300;2023-09-08T06:51:54;101624.91;;;17.08;75.22
17593;BME280;8915;51.760;14.300;2023-09-08T06:54:21;101629.75;;;17.18;74.96
17593;BME280;8915;51.760;14.300;2023-09-08T06:56:47;101626.22;;;17.30;74.43
17593;BME280;8915;51.760;14.300;2023-09-08T06:59:13;101630.75;;;17.41;74.29
17593;BME280;8915;51.760;14.300;2023-09-08T07:01:40;101639.00;;;17.52;74.30
17593;BME280;8915;51.760;14.300;2023-09-08T07:04:09;101639.25;;;17.62;74.21
17593;BME280;8915;51.760;14.300;2023-09-08T07:06:36;101633.38;;;17.72;73.52
17593;BME280;8915;51.760;14.300;2023-09-08T07:09:05;101637.81;;;17.84;73.22
17593;BME280;8915;51.760;14.300;2023-09-08T07:11:31;101634.59;;;17.94;73.73
17593;BME280;8915;51.760;14.300;2023-09-08T07:13:57;101636.06;;;18.07;72.95
17593;BME280;8915;51.760;14.300;2023-09-08T07:16:24;101635.50;;;18.17;72.66
17593;BME280;8915;51.760;14.300;2023-09-08T07:18:50;101633.13;;;18.31;71.98
17593;BME280;8915;51.760;14.300;2023-09-08T07:21:17;101639.84;;;18.40;71.82
17593;BME280;8915;51.760;14.300;2023-09-08T07:23:44;101637.44;;;18.54;71.78
17593;BME280;8915;51.760;14.300;2023-09-08T07:26:13;101635.31;;;18.63;71.45
17593;BME280;8915;51.760;14.300;2023-09-08T07:28:40;101634.38;;;18.75;71.40
17593;BME280;8915;51.760;14.300;2023-09-08T07:31:10;101639.94;;;18.85;71.36
17593;BME280;8915;51.760;14.300;2023-09-08T07:33:41;101635.56;;;18.96;71.03
17593;BME280;8915;51.760;14.300;2023-09-08T07:36:08;101637.25;;;19.08;70.93
17593;BME280;8915;51.760;14.300;2023-09-08T07:38:36;101641.69;;;19.19;70.75
17593;BME280;8915;51.760;14.300;2023-09-08T07:41:03;101637.28;;;19.30;70.20
17593;BME280;8915;51.760;14.300;2023-09-08T07:43:31;101641.34;;;19.43;69.70
17593;BME280;8915;51.760;14.300;2023-09-08T07:45:58;101640.38;;;19.55;69.65
17593;BME280;8915;51.760;14.300;2023-09-08T07:48:24;101639.81;;;19.68;69.18
17593;BME280;8915;51.760;14.300;2023-09-08T07:50:50;101641.94;;;19.82;68.66
17593;BME280;8915;51.760;14.300;2023-09-08T07:53:17;101648.22;;;19.93;69.09
17593;BME280;8915;51.760;14.300;2023-09-08T07:55:43;101642.25;;;20.06;68.36
17593;BME280;8915;51.760;14.300;2023-09-08T07:58:09;101638.63;;;20.18;67.68
17593;BME280;8915;51.760;14.300;2023-09-08T08:00:37;101639.91;;;20.31;67.50
17593;BME280;8915;51.760;14.300;2023-09-08T08:03:04;101641.59;;;20.42;66.66
17593;BME280;8915;51.760;14.300;2023-09-08T08:05:31;101641.78;;;20.56;65.79
17593;BME280;8915;51.760;14.300;2023-09-08T08:07:57;101636.50;;;20.67;66.24
17593;BME280;8915;51.760;14.300;2023-09-08T08:10:24;101633.53;;;20.75;65.56
17593;BME280;8915;51.760;14.300;2023-09-08T08:12:50;101632.09;;;20.85;66.49
17593;BME280;8915;51.760;14.300;2023-09-08T08:15:18;101625.34;;;20.98;65.31
17593;BME280;8915;51.760;14.300;2023-09-08T08:17:46;101623.16;;;21.10;65.55
17593;BME280;8915;51.760;14.300;2023-09-08T08:20:14;101623.25;;;21.21;64.94
17593;BME280;8915;51.760;14.300;2023-09-08T08:22:43;101626.00;;;21.31;65.17
17593;BME280;8915;51.760;14.300;2023-09-08T08:25:10;101623.03;;;21.43;64.17
17593;BME280;8915;51.760;14.300;2023-09-08T08:27:37;101619.28;;;21.55;63.96
17593;BME280;8915;51.760;14.300;2023-09-08T08:30:05;101622.78;;;21.66;62.53
17593;BME280;8915;51.760;14.300;2023-09-08T08:32:33;101621.38;;;21.75;62.32
17593;BME280;8915;51.760;14.300;2023-09-08T08:35:00;101618.34;;;21.84;63.80
17593;BME280;8915;51.760;14.300;2023-09-08T08:37:28;101611.84;;;21.92;63.48
17593;BME280;8915;51.760;14.300;2023-09-08T08:39:54;101608.84;;;22.04;62.96
17593;BME280;8915;51.760;14.300;2023-09-08T08:42:21;101605.03;;;22.15;62.07
17593;BME280;8915;51.760;14.300;2023-09-08T08:44:48;101610.47;;;22.26;62.15
17593;BME280;8915;51.760;14.300;2023-09-08T08:47:16;101602.41;;;22.36;61.62
17593;BME280;8915;51.760;14.300;2023-09-08T08:49:43;101604.03;;;22.48;62.40
17593;BME280;8915;51.760;14.300;2023-09-08T08:52:13;101601.38;;;22.58;60.14
17593;BME280;8915;51.760;14.300;2023-09-08T08:54:40;101597.53;;;22.70;58.98
17593;BME280;8915;51.760;14.300;2023-09-08T08:57:08;101597.16;;;22.78;59.50
17593;BME280;8915;51.760;14.300;2023-09-08T08:59:35;101591.41;;;22.87;61.03
17593;BME280;8915;51.760;14.300;2023-09-08T09:02:02;101594.09;;;23.01;58.93
17593;BME280;8915;51.760;14.300;2023-09-08T09:04:29;101590.63;;;23.11;59.85
17593;BME280;8915;51.760;14.300;2023-09-08T09:06:57;101588.34;;;23.20;57.98
17593;BME280;8915;51.760;14.300;2023-09-08T09:09:25;101589.09;;;23.31;59.51
17593;BME280;8915;51.760;14.300;2023-09-08T09:11:51;101581.03;;;23.42;57.27
17593;BME280;8915;51.760;14.300;2023-09-08T09:14:17;101589.47;;;23.50;57.81
17593;BME280;8915;51.760;14.300;2023-09-08T09:16:44;101591.78;;;23.59;56.84
17593;BME280;8915;51.760;14.300;2023-09-08T09:19:17;101587.50;;;23.68;57.81
17593;BME280;8915;51.760;14.300;2023-09-08T09:21:47;101590.56;;;23.81;56.75
17593;BME280;8915;51.760;14.300;2023-09-08T09:24:14;101588.25;;;23.90;56.68
17593;BME280;8915;51.760;14.300;2023-09-08T09:26:42;101585.13;;;23.99;55.49
17593;BME280;8915;51.760;14.300;2023-09-08T09:29:12;101584.34;;;24.05;56.40
17593;BME280;8915;51.760;14.300;2023-09-08T09:31:50;101580.44;;;24.13;54.89
17593;BME280;8915;51.760;14.300;2023-09-08T09:34:16;101579.63;;;24.23;55.58
17593;BME280;8915;51.760;14.300;2023-09-08T09:36:43;101572.63;;;24.29;55.22
17593;BME280;8915;51.760;14.300;2023-09-08T09:39:10;101573.00;;;24.35;55.17
17593;BME280;8915;51.760;14.300;2023-09-08T09:41:37;101567.91;;;24.43;56.16
17593;BME280;8915;51.760;14.300;2023-09-08T09:44:05;101570.19;;;24.48;56.26
17593;BME280;8915;51.760;14.300;2023-09-08T09:46:33;101570.94;;;24.56;55.08
17593;BME280;8915;51.760;14.300;2023-09-08T09:48:59;101560.47;;;24.65;53.80
17593;BME280;8915;51.760;14.300;2023-09-08T09:51:25;101563.91;;;24.73;53.84
17593;BME280;8915;51.760;14.300;2023-09-08T09:53:54;101554.59;;;24.81;53.74
17593;BME280;8915;51.760;14.300;2023-09-08T09:56:22;101560.63;;;24.95;51.36
17593;BME280;8915;51.760;14.300;2023-09-08T09:58:49;101565.59;;;25.04;53.50
17593;BME280;8915;51.760;14.300;2023-09-08T10:01:17;101563.22;;;25.09;51.75
17593;BME280;8915;51.760;14.300;2023-09-08T10:03:43;101553.47;;;25.19;51.72
17593;BME280;8915;51.760;14.300;2023-09-08T10:06:10;101555.38;;;25.25;52.01
17593;BME280;8915;51.760;14.300;2023-09-08T10:08:37;101556.09;;;25.33;51.60
17593;BME280;8915;51.760;14.300;2023-09-08T10:11:06;101548.25;;;25.42;50.18
17593;BME280;8915;51.760;14.300;2023-09-08T10:13:38;101556.34;;;25.45;50.49
17593;BME280;8915;51.760;14.300;2023-09-08T10:16:05;101550.06;;;25.52;49.67
17593;BME280;8915;51.760;14.300;2023-09-08T10:18:35;101542.28;;;25.57;49.40
17593;BME280;8915;51.760;14.300;2023-09-08T10:21:04;101550.31;;;25.64;51.14
17593;BME280;8915;51.760;14.300;2023-09-08T10:23:34;101549.88;;;25.69;50.29
17593;BME280;8915;51.760;14.300;2023-09-08T10:26:03;101545.19;;;25.73;48.73
17593;BME280;8915;51.760;14.300;2023-09-08T10:28:32;101550.16;;;25.78;51.07
17593;BME280;8915;51.760;14.300;2023-09-08T10:30:58;101540.03;;;25.86;48.17
17593;BME280;8915;51.760;14.300;2023-09-08T10:33:26;101541.06;;;25.95;49.27
17593;BME280;8915;51.760;14.300;2023-09-08T10:35:54;101542.53;;;26.03;48.47
17593;BME280;8915;51.760;14.300;2023-09-08T10:38:22;101539.78;;;26.07;48.45
17593;BME280;8915;51.760;14.300;2023-09-08T10:40:49;101534.25;;;26.14;46.45
17593;BME280;8915;51.760;14.300;2023-09-08T10:43:15;101536.09;;;26.20;48.66
17593;BME280;8915;51.760;14.300;2023-09-08T10:45:43;101536.00;;;26.27;46.60
17593;BME280;8915;51.760;14.300;2023-09-08T10:48:09;101526.25;;;26.33;46.86
17593;BME280;8915;51.760;14.300;2023-09-08T10:50:39;101522.72;;;26.36;43.34
17593;BME280;8915;51.760;14.300;2023-09-08T10:53:12;101520.72;;;26.40;43.62
17593;BME280;8915;51.760;14.300;2023-09-08T10:55:40;101527.59;;;26.48;45.23
17593;BME280;8915;51.760;14.300;2023-09-08T10:58:09;101523.22;;;26.54;45.94
17593;BME280;8915;51.760;14.300;2023-09-08T11:00:46;101523.13;;;26.61;45.09
17593;BME280;8915;51.760;14.300;2023-09-08T11:03:13;101522.25;;;26.68;45.77
17593;BME280;8915;51.760;14.300;2023-09-08T11:05:43;101520.63;;;26.74;43.58
17593;BME280;8915;51.760;14.300;2023-09-08T11:08:11;101515.50;;;26.79;44.76
17593;BME280;8915;51.760;14.300;2023-09-08T11:10:39;101514.66;;;26.82;44.73
17593;BME280;8915;51.760;14.300;2023-09-08T11:13:06;101516.50;;;26.89;44.42
17593;BME280;8915;51.760;14.300;2023-09-08T11:15:32;101514.06;;;26.94;42.99
17593;BME280;8915;51.760;14.300;2023-09-08T11:18:04;101508.59;;;26.98;42.60
17593;BME280;8915;51.760;14.300;2023-09-08T11:20:30;101511.25;;;27.01;43.59
17593;BME280;8915;51.760;14.300;2023-09-08T11:22:57;101512.69;;;27.06;43.02
17593;BME280;8915;51.760;14.300;2023-09-08T11:25:26;101506.72;;;27.14;44.14
17593;BME280;8915;51.760;14.300;2023-09-08T11:27:52;101506.28;;;27.19;41.65
17593;BME280;8915;51.760;14.300;2023-09-08T11:30:18;101504.28;;;27.23;43.71
17593;BME280;8915;51.760;14.300;2023-09-08T11:32:45;101499.53;;;27.27;41.20
17593;BME280;8915;51.760;14.300;2023-09-08T11:35:12;101495.66;;;27.28;43.42
17593;BME280;8915;51.760;14.300;2023-09-08T11:37:40;101489.81;;;27.30;44.42
17593;BME280;8915;51.760;14.300;2023-09-08T11:40:09;101499.00;;;27.36;43.57
17593;BME280;8915;51.760;14.300;2023-09-08T11:42:39;101500.09;;;27.38;41.95
17593;BME280;8915;51.760;14.300;2023-09-08T11:45:11;101498.09;;;27.42;42.35
17593;BME280;8915;51.760;14.300;2023-09-08T11:47:40;101502.59;;;27.49;40.99
17593;BME280;8915;51.760;14.300;2023-09-08T11:50:07;101497.53;;;27.51;42.49
17593;BME280;8915;51.760;14.300;2023-09-08T11:52:34;101490.44;;;27.57;41.71
17593;BME280;8915;51.760;14.300;2023-09-08T11:55:00;101493.47;;;27.59;38.59
17593;BME280;8915;51.760;14.300;2023-09-08T11:57:28;101489.16;;;27.61;40.57
17593;BME280;8915;51.760;14.300;2023-09-08T11:59:58;101484.50;;;27.62;38.01
17593;BME280;8915;51.760;14.300;2023-09-08T12:02:26;101486.03;;;27.63;40.01
17593;BME280;8915;51.760;14.300;2023-09-08T12:04:53;101485.13;;;27.69;39.12
17593;BME280;8915;51.760;14.300;2023-09-08T12:07:19;101487.44;;;27.71;41.12
17593;BME280;8915;51.760;14.300;2023-09-08T12:09:45;101479.91;;;27.78;38.75
17593;BME280;8915;51.760;14.300;2023-09-08T12:12:12;101479.50;;;27.80;40.30
17593;BME280;8915;51.760;14.300;2023-09-08T12:14:40;101482.56;;;27.82;40.25
17593;BME280;8915;51.760;14.300;2023-09-08T12:17:08;101471.22;;;27.87;38.61
17593;BME280;8915;51.760;14.300;2023-09-08T12:19:35;101466.81;;;27.93;39.88
17593;BME280;8915;51.760;14.300;2023-09-08T12:22:03;101475.66;;;27.97;39.59
17593;BME280;8915;51.760;14.300;2023-09-08T12:24:49;101470.47;;;28.02;37.63
17593;BME280;8915;51.760;14.300;2023-09-08T12:27:16;101472.66;;;28.07;37.47
17593;BME280;8915;51.760;14.300;2023-09-08T12:29:52;101465.53;;;28.13;39.12
17593;BME280;8915;51.760;14.300;2023-09-08T12:32:20;101457.34;;;28.17;35.76
17593;BME280;8915;51.760;14.300;2023-09-08T12:34:47;101460.38;;;28.19;39.43
17593;BME280;8915;51.760;14.300;2023-09-08T12:37:13;101455.22;;;28.24;37.02
17593;BME280;8915;51.760;14.300;2023-09-08T12:39:39;101455.13;;;28.28;37.30
17593;BME280;8915;51.760;14.300;2023-09-08T12:42:05;101455.38;;;28.33;37.87
17593;BME280;8915;51.760;14.300;2023-09-08T12:44:32;101449.19;;;28.33;38.58
17593;BME280;8915;51.760;14.300;2023-09-08T12:46:58;101457.59;;;28.38;38.07
17593;BME280;8915;51.760;14.300;2023-09-08T12:49:26;101457.97;;;28.40;37.43
17593;BME280;8915;51.760;14.300;2023-09-08T12:51:52;101456.00;;;28.41;38.11
17593;BME280;8915;51.760;14.300;2023-09-08T12:54:18;101450.91;;;28.43;37.87